createdAt,value
2019-01-18T00:02:24.685Z,23.07
2019-01-18T00:04:58.003Z,29.75
2019-01-18T00:07:31.065Z,28.15
2019-01-18T00:10:04.181Z,28.42
2019-01-18T00:12:37.469Z,26.40
2019-01-18T00:15:10.659Z,27.40
2019-01-18T00:17:56.822Z,28.27
2019-01-18T00:20:42.256Z,22.95
2019-01-18T00:23:29.023Z,25.70
2019-01-18T00:26:08.584Z,22.17
2019-01-18T00:28:41.340Z,29.87
2019-01-18T00:31:15.123Z,35.28
2019-01-18T00:33:48.184Z,31.12
2019-01-18T00:38:53.602Z,17.87
2019-01-18T00:41:26.818Z,24.43
2019-01-18T00:43:59.930Z,22.22
2019-01-18T00:46:33.849Z,16.67
2019-01-18T00:49:07.899Z,15.72
2019-01-18T00:51:41.177Z,24.87
2019-01-18T00:54:14.459Z,22.20
2019-01-18T00:56:48.180Z,17.30
2019-01-18T00:59:21.545Z,24.37
2019-01-18T01:01:54.603Z,17.73
2019-01-18T01:07:00.440Z,12.15
2019-01-18T01:12:07.184Z,27.52
2019-01-18T01:14:40.746Z,52.67
2019-01-18T01:17:26.363Z,63.35
2019-01-18T01:20:09.308Z,46.30
2019-01-18T01:22:42.523Z,18.60
2019-01-18T01:25:15.560Z,18.05
2019-01-18T01:30:22.427Z,12.40
2019-01-18T01:32:56.231Z,14.63
2019-01-18T01:35:29.641Z,13.72
2019-01-18T01:38:02.736Z,12.78
2019-01-18T01:43:07.982Z,20.37
2019-01-18T01:45:41.075Z,17.82
2019-01-18T01:48:14.348Z,17.95
2019-01-18T01:50:47.531Z,16.93
2019-01-18T01:53:20.249Z,15.13
2019-01-18T01:55:53.529Z,17.00
2019-01-18T01:58:26.818Z,15.63
2019-01-18T02:01:00.222Z,16.80
2019-01-18T02:03:33.331Z,14.28
2019-01-18T02:06:07.125Z,13.25
2019-01-18T02:08:40.006Z,12.78
2019-01-18T02:11:12.687Z,13.05
2019-01-18T02:13:45.802Z,12.13
2019-01-18T02:16:18.950Z,12.85
2019-01-18T02:19:01.162Z,12.75
2019-01-18T02:21:34.334Z,12.10
2019-01-18T02:24:07.778Z,12.85
2019-01-18T02:26:41.987Z,12.63
2019-01-18T02:29:14.724Z,12.85
2019-01-18T02:31:47.739Z,15.48
2019-01-18T02:36:52.591Z,16.73
2019-01-18T02:39:25.736Z,16.27
2019-01-18T02:41:59.000Z,14.00
2019-01-18T02:44:32.204Z,12.58
2019-01-18T02:47:05.193Z,16.75
2019-01-18T02:52:09.784Z,15.23
2019-01-18T02:54:42.670Z,14.73
2019-01-18T02:57:16.118Z,14.83
2019-01-18T02:59:49.938Z,18.02
2019-01-18T03:02:23.036Z,17.20
2019-01-18T03:04:55.890Z,18.55
2019-01-18T03:07:29.032Z,18.55
2019-01-18T03:12:36.278Z,20.15
2019-01-18T03:15:09.193Z,16.80
2019-01-18T03:17:53.544Z,20.17
2019-01-18T03:20:39.252Z,18.87
2019-01-18T03:23:19.639Z,18.80
2019-01-18T03:25:52.738Z,17.57
2019-01-18T03:28:26.286Z,20.27
2019-01-18T03:30:59.430Z,19.85
2019-01-18T03:33:32.566Z,32.17
2019-01-18T03:36:06.055Z,35.70
2019-01-18T03:38:40.177Z,34.27
2019-01-18T03:41:13.556Z,37.28
2019-01-18T03:43:47.703Z,32.42
2019-01-18T03:46:21.043Z,27.48
2019-01-18T03:48:54.448Z,25.80
2019-01-18T03:51:27.576Z,30.97
2019-01-18T03:54:01.545Z,23.90
2019-01-18T03:56:35.337Z,24.27
2019-01-18T03:59:09.335Z,23.22
2019-01-18T04:01:42.517Z,23.32
2019-01-18T04:04:16.701Z,23.67
2019-01-18T04:06:51.073Z,22.65
2019-01-18T04:09:24.283Z,23.57
2019-01-18T04:11:57.917Z,24.72
2019-01-18T04:14:31.203Z,22.05
2019-01-18T04:17:05.002Z,31.27
2019-01-18T04:19:39.825Z,35.52
2019-01-18T04:22:13.668Z,24.50
2019-01-18T04:24:47.613Z,27.13
2019-01-18T04:27:21.693Z,23.12
2019-01-18T04:29:56.115Z,31.77
2019-01-18T04:32:29.855Z,28.85
2019-01-18T04:35:03.959Z,24.05
2019-01-18T04:37:37.524Z,24.37
2019-01-18T04:40:22.353Z,28.77
2019-01-18T04:42:56.318Z,28.98
2019-01-18T04:45:30.358Z,31.90
2019-01-18T04:48:04.106Z,32.08
2019-01-18T04:50:37.991Z,33.35
2019-01-18T04:53:11.453Z,40.70
2019-01-18T04:55:45.418Z,40.63
2019-01-18T04:58:19.035Z,31.23
2019-01-18T05:00:52.629Z,28.52
2019-01-18T05:03:27.130Z,22.25
2019-01-18T05:06:01.049Z,34.27
2019-01-18T05:08:34.675Z,32.25
2019-01-18T05:11:09.090Z,38.40
2019-01-18T05:13:42.738Z,28.90
2019-01-18T05:16:16.315Z,31.45
2019-01-18T05:18:59.692Z,20.35
2019-01-18T05:21:36.421Z,17.35
2019-01-18T05:24:09.604Z,20.85
2019-01-18T05:26:43.400Z,20.65
2019-01-18T05:29:17.675Z,21.42
2019-01-18T05:31:51.259Z,16.60
2019-01-18T05:34:25.127Z,51.83
2019-01-18T05:36:58.994Z,28.45
2019-01-18T05:39:35.276Z,27.77
2019-01-18T05:42:09.488Z,34.75
2019-01-18T05:44:44.787Z,48.48
2019-01-18T05:47:19.607Z,56.28
2019-01-18T05:49:53.591Z,37.78
2019-01-18T05:52:29.141Z,38.45
2019-01-18T05:55:03.363Z,35.13
2019-01-18T05:57:37.510Z,70.47
2019-01-18T06:00:54.965Z,79.05
2019-01-18T06:03:22.545Z,90.32
2019-01-18T06:05:56.046Z,75.62
2019-01-18T06:08:29.235Z,94.37
2019-01-18T06:11:02.784Z,84.77
2019-01-18T06:13:37.653Z,53.15
2019-01-18T06:16:10.640Z,77.15
2019-01-18T06:18:56.685Z,72.60
2019-01-18T06:21:42.339Z,71.30
2019-01-18T06:24:25.967Z,60.38
2019-01-18T06:27:07.531Z,63.00
2019-01-18T06:29:40.822Z,55.92
2019-01-18T06:32:14.105Z,54.08
2019-01-18T06:34:47.391Z,56.75
2019-01-18T06:37:22.498Z,76.95
2019-01-18T06:39:56.809Z,85.80
2019-01-18T06:42:29.875Z,103.53
2019-01-18T06:45:02.759Z,75.80
2019-01-18T06:47:35.974Z,98.78
2019-01-18T06:50:12.645Z,119.47
2019-01-18T06:52:46.185Z,89.15
2019-01-18T06:55:19.513Z,80.83
2019-01-18T06:57:53.053Z,62.08
2019-01-18T07:00:31.208Z,59.63
2019-01-18T07:03:09.834Z,38.58
2019-01-18T07:05:43.389Z,41.50
2019-01-18T07:08:16.660Z,47.80
2019-01-18T07:10:50.245Z,77.35
2019-01-18T07:13:23.465Z,73.55
2019-01-18T07:15:56.551Z,69.65
2019-01-18T07:21:10.151Z,100.47
2019-01-18T07:23:43.264Z,91.32
2019-01-18T07:26:17.168Z,90.75
2019-01-18T07:28:51.812Z,73.50
2019-01-18T07:31:25.340Z,91.45
2019-01-18T07:33:58.578Z,86.75
2019-01-18T07:36:31.859Z,91.53
2019-01-18T07:39:06.358Z,97.57
2019-01-18T07:41:39.674Z,91.08
2019-01-18T07:44:13.174Z,92.70
2019-01-18T07:46:48.793Z,82.82
2019-01-18T07:49:22.316Z,113.42
2019-01-18T07:51:55.906Z,91.00
2019-01-18T07:54:29.205Z,124.18
2019-01-18T07:59:34.776Z,120.30
2019-01-18T08:02:08.452Z,146.65
2019-01-18T08:04:41.935Z,160.15
2019-01-18T08:07:15.162Z,144.97
2019-01-18T08:09:48.308Z,125.87
2019-01-18T08:12:21.545Z,111.45
2019-01-18T08:17:27.730Z,135.52
2019-01-18T08:20:11.037Z,97.78
2019-01-18T08:22:44.380Z,93.72
2019-01-18T08:25:17.827Z,79.00
2019-01-18T08:27:51.748Z,58.60
2019-01-18T08:30:26.618Z,62.33
2019-01-18T08:33:00.031Z,61.63
2019-01-18T08:35:33.629Z,71.30
2019-01-18T08:38:07.128Z,79.42
2019-01-18T08:40:42.306Z,53.28
2019-01-18T08:43:17.250Z,56.92
2019-01-18T08:45:52.845Z,57.80
2019-01-18T08:48:26.574Z,70.72
2019-01-18T08:51:00.631Z,54.05
2019-01-18T08:53:33.784Z,73.78
2019-01-18T08:58:39.488Z,48.28
2019-01-18T09:01:13.061Z,59.98
2019-01-18T09:03:46.800Z,46.02
2019-01-18T09:06:19.725Z,47.98
2019-01-18T09:08:53.420Z,62.98
2019-01-18T09:11:26.870Z,55.52
2019-01-18T09:14:00.175Z,61.25
2019-01-18T09:19:06.473Z,100.97
2019-01-18T09:21:39.794Z,82.27
2019-01-18T09:24:13.313Z,84.42
2019-01-18T09:26:45.988Z,106.37
2019-01-18T09:29:19.206Z,60.80
2019-01-18T09:31:52.502Z,74.90
2019-01-18T09:36:57.767Z,65.37
2019-01-18T09:39:31.167Z,82.00
2019-01-18T09:42:04.569Z,61.45
2019-01-18T09:44:38.289Z,50.20
2019-01-18T09:47:11.582Z,63.20
2019-01-18T09:52:18.147Z,54.98
2019-01-18T09:54:51.764Z,59.45
2019-01-18T09:57:24.831Z,65.25
2019-01-18T09:59:58.221Z,61.15
2019-01-18T10:02:33.845Z,56.98
2019-01-18T10:05:08.185Z,60.48
2019-01-18T10:07:41.283Z,57.58
2019-01-18T10:10:16.778Z,62.93
2019-01-18T10:12:53.318Z,67.20
2019-01-18T10:15:32.669Z,63.63
2019-01-18T10:18:06.507Z,80.92
2019-01-18T10:20:49.027Z,94.30
2019-01-18T10:23:22.217Z,78.87
2019-01-18T10:28:29.942Z,75.28
2019-01-18T10:33:35.789Z,65.28
2019-01-18T10:38:41.061Z,59.38
2019-01-18T10:43:46.541Z,68.97
2019-01-18T10:46:19.984Z,70.08
2019-01-18T10:48:53.251Z,70.28
2019-01-18T10:51:27.078Z,72.75
2019-01-18T10:54:00.185Z,68.02
2019-01-18T10:56:36.357Z,57.65
2019-01-18T10:59:09.348Z,54.98
2019-01-18T11:01:42.788Z,80.72
2019-01-18T11:04:15.970Z,48.83
2019-01-18T11:06:49.611Z,55.05
2019-01-18T11:09:22.831Z,45.90
2019-01-18T11:14:28.899Z,56.60
2019-01-18T11:17:01.925Z,68.47
2019-01-18T11:19:41.549Z,76.62
2019-01-18T11:22:16.262Z,77.92
2019-01-18T11:24:49.923Z,75.90
2019-01-18T11:27:23.781Z,85.65
2019-01-18T11:29:56.775Z,84.95
2019-01-18T11:32:30.319Z,89.58
2019-01-18T11:35:04.967Z,91.60
2019-01-18T11:37:38.162Z,76.90
2019-01-18T11:42:46.103Z,78.22
2019-01-18T11:45:19.321Z,88.07
2019-01-18T11:50:25.972Z,73.80
2019-01-18T11:52:59.862Z,78.80
2019-01-18T11:55:32.552Z,76.12
2019-01-18T11:58:05.911Z,81.50
2019-01-18T12:03:13.839Z,83.87
2019-01-18T12:05:49.034Z,93.33
2019-01-18T12:08:22.693Z,98.40
2019-01-18T12:10:59.095Z,119.93
2019-01-18T12:13:32.711Z,116.03
2019-01-18T12:16:06.262Z,107.37
2019-01-18T12:18:40.861Z,104.63
2019-01-18T12:21:26.912Z,116.73
2019-01-18T12:24:04.823Z,67.97
2019-01-18T12:26:37.843Z,65.52
2019-01-18T12:29:10.842Z,86.00
2019-01-18T12:31:44.261Z,77.20
2019-01-18T12:36:49.981Z,109.42
2019-01-18T12:41:55.401Z,125.47
2019-01-18T12:44:28.857Z,147.00
2019-01-18T12:47:02.199Z,89.35
2019-01-18T12:49:36.347Z,89.32
2019-01-18T12:52:09.051Z,75.60
2019-01-18T12:54:42.079Z,76.50
2019-01-18T12:57:15.711Z,72.97
2019-01-18T12:59:49.093Z,77.65
2019-01-18T13:02:22.453Z,93.07
2019-01-18T13:04:55.823Z,93.35
2019-01-18T13:07:29.792Z,83.03
2019-01-18T13:10:03.635Z,107.72
2019-01-18T13:12:37.133Z,101.92
2019-01-18T13:15:20.801Z,101.38
2019-01-18T13:17:54.073Z,118.60
2019-01-18T13:23:00.740Z,112.88
2019-01-18T13:25:34.089Z,120.40
2019-01-18T13:28:07.729Z,107.63
2019-01-18T13:30:40.930Z,129.03
2019-01-18T13:35:46.041Z,156.85
2019-01-18T13:38:19.550Z,140.75
2019-01-18T13:43:26.121Z,132.57
2019-01-18T13:45:59.105Z,158.03
2019-01-18T13:48:32.483Z,150.68
2019-01-18T13:51:06.487Z,139.15
2019-01-18T13:53:39.943Z,113.80
2019-01-18T13:56:12.627Z,126.87
2019-01-18T13:58:45.791Z,110.35
2019-01-18T14:01:19.105Z,105.20
2019-01-18T14:06:25.728Z,95.45
2019-01-18T14:08:59.207Z,112.25
2019-01-18T14:11:32.971Z,86.75
2019-01-18T14:14:06.826Z,95.75
2019-01-18T14:16:40.170Z,99.20
2019-01-18T14:19:13.468Z,121.55
2019-01-18T14:21:56.410Z,146.87
2019-01-18T14:24:37.913Z,101.82
2019-01-18T14:27:11.406Z,78.37
2019-01-18T14:29:44.433Z,72.70
2019-01-18T14:32:17.581Z,69.40
2019-01-18T14:37:24.643Z,82.37
2019-01-18T14:39:57.613Z,79.67
2019-01-18T14:42:31.315Z,79.30
2019-01-18T14:45:05.396Z,83.58
2019-01-18T14:47:38.985Z,89.10
2019-01-18T14:50:15.806Z,78.02
2019-01-18T14:52:49.837Z,85.92
2019-01-18T14:55:23.305Z,81.85
2019-01-18T14:57:58.018Z,76.80
2019-01-18T15:00:37.027Z,85.90
2019-01-18T15:03:10.378Z,77.82
2019-01-18T15:05:44.021Z,88.80
2019-01-18T15:08:17.309Z,97.85
2019-01-18T15:10:50.891Z,109.00
2019-01-18T15:13:25.480Z,110.25
2019-01-18T15:15:58.703Z,128.20
2019-01-18T15:21:17.781Z,108.37
2019-01-18T15:24:03.654Z,97.67
2019-01-18T15:26:49.275Z,101.78
2019-01-18T15:29:34.837Z,111.92
2019-01-18T15:32:28.725Z,123.20
2019-01-18T15:35:14.701Z,157.82
2019-01-18T15:37:59.715Z,218.20
2019-01-18T15:40:47.688Z,220.37
2019-01-18T15:43:35.012Z,178.30
2019-01-18T15:46:09.850Z,136.30
2019-01-18T15:48:43.080Z,131.67
2019-01-18T15:53:48.491Z,145.82
2019-01-18T15:56:23.171Z,164.03
2019-01-18T15:58:57.962Z,160.32
2019-01-18T16:01:31.665Z,155.93
2019-01-18T16:04:05.131Z,158.85
2019-01-18T16:06:38.973Z,163.47
2019-01-18T16:09:12.428Z,142.65
2019-01-18T16:11:46.093Z,129.10
2019-01-18T16:14:19.413Z,135.28
2019-01-18T16:19:27.833Z,139.12
2019-01-18T16:22:08.737Z,184.82
2019-01-18T16:24:42.398Z,202.18
2019-01-18T16:27:15.566Z,187.12
2019-01-18T16:32:22.397Z,249.27
2019-01-18T16:34:55.179Z,278.92
2019-01-18T16:37:28.885Z,286.25
2019-01-18T16:40:02.695Z,354.10
2019-01-18T16:42:36.126Z,334.80
2019-01-18T16:45:11.031Z,383.10
2019-01-18T16:47:45.654Z,351.52
2019-01-18T16:50:19.129Z,230.55
2019-01-18T16:52:52.302Z,144.80
2019-01-18T16:58:01.496Z,139.62
2019-01-18T17:00:38.662Z,141.28
2019-01-18T17:03:13.187Z,158.30
2019-01-18T17:05:47.658Z,190.15
2019-01-18T17:08:21.614Z,204.95
2019-01-18T17:10:54.955Z,196.82
2019-01-18T17:13:31.285Z,204.45
2019-01-18T17:16:06.178Z,177.02
2019-01-18T17:18:40.594Z,167.62
2019-01-18T17:21:20.804Z,157.00
2019-01-18T17:23:54.302Z,156.35
2019-01-18T17:26:27.822Z,149.35
2019-01-18T17:29:01.880Z,144.65
2019-01-18T17:31:36.730Z,145.53
2019-01-18T17:34:09.521Z,142.50
2019-01-18T17:36:59.390Z,136.75
2019-01-18T17:39:48.843Z,177.87
2019-01-18T17:43:14.255Z,260.40
2019-01-18T17:46:05.035Z,142.53
2019-01-18T17:49:21.152Z,115.55
2019-01-18T17:52:48.013Z,111.88
2019-01-18T17:55:42.817Z,123.78
2019-01-18T17:59:02.695Z,136.95
2019-01-18T18:01:48.226Z,133.25
2019-01-18T18:04:55.237Z,178.97
2019-01-18T18:08:02.029Z,171.47
2019-01-18T18:11:21.659Z,222.30
2019-01-18T18:14:37.775Z,245.30
2019-01-18T18:17:24.548Z,230.87
2019-01-18T18:20:32.491Z,227.43
2019-01-18T18:23:33.931Z,269.15
2019-01-18T18:26:50.626Z,260.38
2019-01-18T18:30:20.044Z,278.23
2019-01-18T18:33:16.146Z,298.85
2019-01-18T18:36:32.725Z,316.02
2019-01-18T18:39:43.360Z,289.08
2019-01-18T18:42:47.701Z,278.18
2019-01-18T18:45:58.699Z,263.75
2019-01-18T18:49:12.973Z,175.50
2019-01-18T18:52:24.226Z,150.35
2019-01-18T18:55:55.636Z,280.67
2019-01-18T18:59:13.595Z,210.55
2019-01-18T19:02:13.795Z,219.30
2019-01-18T19:05:27.771Z,233.25
2019-01-18T19:08:38.467Z,245.35
2019-01-18T19:11:49.161Z,195.75
2019-01-18T19:15:11.933Z,289.45
2019-01-18T19:18:07.263Z,273.05
2019-01-18T19:21:02.334Z,276.82
2019-01-18T19:24:15.525Z,319.18
2019-01-18T19:27:20.235Z,250.00
2019-01-18T19:30:20.848Z,360.82
2019-01-18T19:33:28.556Z,283.27
2019-01-18T19:36:27.467Z,257.55
2019-01-18T19:39:32.375Z,263.43
2019-01-18T19:42:37.079Z,328.90
2019-01-18T19:45:24.101Z,323.43
2019-01-18T19:48:38.445Z,283.35
2019-01-18T19:51:50.870Z,244.00
2019-01-18T19:55:09.228Z,221.90
2019-01-18T19:58:22.270Z,324.23
2019-01-18T20:01:34.284Z,329.32
2019-01-18T20:04:40.542Z,331.45
2019-01-18T20:07:38.805Z,309.40
2019-01-18T20:10:43.239Z,330.10
2019-01-18T20:13:56.168Z,354.00
2019-01-18T20:17:02.961Z,340.05
2019-01-18T20:20:04.791Z,316.17
2019-01-18T20:22:49.577Z,331.20
2019-01-18T20:25:36.346Z,318.05
2019-01-18T20:28:22.531Z,304.23
2019-01-18T20:31:07.221Z,294.95
2019-01-18T20:34:39.771Z,280.35
2019-01-18T20:37:25.420Z,280.55
2019-01-18T20:40:28.017Z,290.40
2019-01-18T20:43:40.276Z,311.18
2019-01-18T20:46:41.438Z,307.30
2019-01-18T20:49:42.231Z,293.10
2019-01-18T20:52:55.772Z,276.70
2019-01-18T20:56:06.901Z,230.47
2019-01-18T20:59:05.581Z,265.48
2019-01-18T21:02:07.900Z,252.55
2019-01-18T21:05:01.453Z,260.40
2019-01-18T21:07:53.900Z,225.57
2019-01-18T21:10:48.064Z,217.32
2019-01-18T21:14:16.583Z,329.87
2019-01-18T21:17:33.089Z,150.95
2019-01-18T21:20:52.917Z,132.45
2019-01-18T21:23:38.788Z,146.02
2019-01-18T21:26:25.002Z,155.78
2019-01-18T21:29:24.021Z,142.53
2019-01-18T21:32:35.403Z,166.92
2019-01-18T21:35:44.351Z,167.32
2019-01-18T21:39:09.897Z,174.20
2019-01-18T21:42:13.889Z,193.72
2019-01-18T21:47:56.571Z,118.17
2019-01-18T21:51:11.357Z,94.70
2019-01-18T21:54:14.487Z,121.33
2019-01-18T21:57:27.857Z,124.67
2019-01-18T22:00:31.309Z,125.37
2019-01-18T22:03:34.648Z,122.17
2019-01-18T22:06:32.499Z,122.42
2019-01-18T22:09:36.230Z,136.47
2019-01-18T22:12:39.416Z,122.50
2019-01-18T22:15:55.528Z,101.62
2019-01-18T22:18:55.599Z,87.42
2019-01-18T22:22:02.752Z,97.72
2019-01-18T22:25:16.184Z,97.65
2019-01-18T22:28:29.920Z,106.60
2019-01-18T22:31:53.387Z,90.67
2019-01-18T22:35:00.593Z,83.97
2019-01-18T22:37:55.093Z,74.92
2019-01-18T22:41:18.526Z,95.07
2019-01-18T22:44:14.564Z,73.72
2019-01-18T22:47:22.660Z,75.90
2019-01-18T22:50:22.725Z,66.53
2019-01-18T22:53:23.151Z,72.60
2019-01-18T22:56:40.229Z,64.20
2019-01-18T22:59:54.760Z,70.62
2019-01-18T23:02:53.833Z,62.90
2019-01-18T23:06:04.750Z,93.50
2019-01-18T23:09:09.633Z,70.45
2019-01-18T23:12:07.800Z,53.23
2019-01-18T23:15:20.070Z,51.98
2019-01-18T23:18:17.640Z,73.35
2019-01-18T23:21:17.539Z,78.80
2019-01-18T23:24:02.788Z,72.75
2019-01-18T23:26:48.685Z,60.45
2019-01-18T23:29:43.515Z,58.23
2019-01-18T23:32:29.491Z,59.65
2019-01-18T23:35:21.070Z,60.38
2019-01-18T23:38:39.044Z,56.98
2019-01-18T23:41:49.176Z,43.95
2019-01-18T23:44:56.323Z,57.38
2019-01-18T23:48:04.140Z,45.08
2019-01-18T23:50:53.513Z,36.30
2019-01-18T23:53:44.502Z,32.03
2019-01-18T23:56:39.288Z,30.70
2019-01-18T23:59:39.203Z,32.35
